Half Moon Bay, CA (94019)

3:34 AM PDT on March 24, 2017 (GMT -0700)
Near Downtown Half Moon Bay | | Change Station
Active Advisory: Wind Advisory

Elev 90 ft 37.46 °N, 122.43 °W | Updated 5 seconds ago

Rain
Rain
54.9 °F
Feels Like 54.9 °F
N
4.0
Wind Variable Wind from NNW
Gusts 4.0 mph

Today
High -- | Low -- °F
--% Chance of Precip.
Yesterday
High -- | Low -- °F
Precip. -- in
Pressure 30.20 in
Visibility 10.0 miles
Clouds Overcast 2100 ft
Dew Point 44 °F
Humidity 59%
Rainfall 0.00 in
Snow Depth Not available.
7:06 AM 7:25 PM
Waning Crescent, 16% visible
METAR KHAF 241015Z AUTO 15009KT 10SM OVC021 12/08 A3020 RMK AO2
Pressure 30.20 in
Visibility 10.0 miles
Clouds Overcast 2100 ft
Dew Point 44 °F
Humidity 59%
Rainfall 0.00 in
Snow Depth Not available.
7:06 AM 7:25 PM
Waning Crescent, 16% visible
METAR KHAF 241015Z AUTO 15009KT 10SM OVC021 12/08 A3020 RMK AO2

Get Your Daily Forecast Email!

Thanks for signing up!

Be on the lookout for a verification email in your inbox.

You'll start receiving severe weather alerts in your inbox..

×

10-Day Weather Forecast

Almanac

Astronomy

Mar. 24, 2017 Rise Set
Actual Time
Civil Twilight
Nautical Twilight
Astronomical Twilight
Moon
Length of Visible Light
Length of Day
Tomorrow will be .
, % of the Moon is Illuminated

Today's Extremes

State Highs State Lows

Community

WunderPhotos

Upload Photos

1,962,540 photos uploaded!

WunderBlog® & News

Nearby

Air Quality

  Air Quality AQ Index Pollutant
Not available.

Snow Depth

Station Depth Elevation

Earthquake Activity

City Distance Mag. Time & Date
Minimum magnitude displayed is 2.5.

Earthquake Activity

City Distance Mag. Time & Date
Minimum magnitude displayed is 2.5.

Coastal Water Temperatures

Place Temperature

Stations

Nearby Weather Stations

Station Location Temp. Windchill Dew Point Humidity Wind Precip. Elev Updated Type
                   

Watches & Warnings

Wind Advisory
Issued: 2:51 AM PDT Mar. 24, 2017 – National Weather Service

... Wind Advisory in effect from 10 am this morning to 7 PM PDT
this evening...

The National Weather Service in San Francisco has issued a Wind
Advisory, which is in effect from 10 am this morning to 7 PM PDT
this evening.

* Timing... mid morning through early this evening.

* Winds... southerly winds of 25 to 35 mph with gusts to 45 mph.

* Impacts... gusty winds will make driving difficult especially for
drivers of high profile vehicles. Downed trees and powerlines
are also possible during these strong winds.

Precautionary/preparedness actions...

A Wind Advisory means that winds of 35 mph are expected. Winds
this strong can make driving difficult... especially for high
profile vehicles. Use extra caution.